Terminal Aerodrome Forecast
Issued by NWS

Home | Current Version | Previous Version | Text Only | Print | Product List | Glossary On
Versions: 1 2 3 4 5 6 7 8 9 10 11 12 13 14 15 16 17 18 19 20 21 22 23 24 25
000
FTUS45 KCYS 031736
TAFAIA
TAF
KAIA 031736Z 0318/0418 02015G23KT P6SM FEW150
     FM040200 06011KT P6SM SCT150
     FM040600 06010KT P6SM BKN150
     FM041300 06011KT P6SM VCSH SCT018 BKN030=

USA.gov is the U.S. government's official web portal to all federal, state and local government web resources and services.